Airfield :
LOGIN :

Register | Disclaimer

   EN    FR    IT 

 










Legend :    VFR   Marginal VFR   IFR   Intensive IFR   Very Intensive IFR
Visi :
Ceiling :
>= 8 km
>= 3000ft
5 to 8 km
1000 to 3000 ft
1500m to 5 km
500 to 1000 ft
800 to 1500m
200 to 500 ft
< 800m
< 200 ft
Symbols :   Thunderstorms  Fog  Heavy snow  Heavy precipitations  Wind > 20 kt
SIGMETs :     Misc.  Thunderstorms  Icing  Turbulence  Mountain Waves  Volcanic Ashes







- Airport Elevation : 158 ft
- IATA code : QAR


EHDL - Deelen Airbase

CURRENT METAR :
  • 160825Z AUTO 21001KT 2800 BR NCD M02/M02 Q1009 YLO

EXPIRED METARs :
  • 160755Z AUTO 25001KT 0500 FZFG FEW025 M02/M03 Q1008 RED
  • 160725Z AUTO 27001KT 2300 BR NCD M01/M01 Q1007 YLO
  • 160655Z AUTO 31001KT 4000 BR NCD M00/M01 Q1007 GRN
  • 160625Z AUTO 28001KT 2200 BR BKN048 M01/M01 Q1007 YLO
  • 160555Z AUTO VRB02KT 0450 FZFG BKN000 BKN110 M01/M01 Q1006 RED

Expired Forecast.
No reported NOTAMs for that airfield.



MET'MAP, your aeronautical weather chart ! - Copyright ORBIFLY December 2007 - Disclaimer

ORBIFLY MET'MAP TEAM :

Programming & Development : Alexandra Zaïnal
Concept & Development : Baudouin d'Aumeries
Co-Development & Prog : Marc-Olivier Méhu
Technical & hardware support : Manuel Goepfert

Contact : metmap@orbifly.com




SOURCES & CREDITS :

   NOAA